Racecast

Faith Lee

Heritage Christian (IN) · 12 · CO D2A2A · Compare head to head

Athlete rating 129.1 2026 TF season
Best race 129.8 TF
Races 53
Seasons 5 2022 — 2026

RankedNation #4980·CO #221·CO D2A #42·Team #4 ?

Speed rating — all races

Cross Country

XC speed rating

2025 XC 119.0

Heritage Christian (IN) · Grade 12

Date Meet Event Result Place Rating Difficulty PR/SR Flags
2025-11-01 Norris Penrose Event Center 5000m 21:06.8 30th · 3rd on team 122.7 +0.067 CSR RSR
2025-10-23 Lyons Middle/Senior High School 5000m 21:26.5 6th · 3rd on team 116.6 +0.020 ★CR CSR
2025-09-13 Heritage High School 5000m 20:34.7 37th · 3rd on team 119.4 -0.001 SR CSR RSR
2025-09-01 Toka Sticks Golf Course 5000m 21:05.2 21st · 3rd on team 117.3 +0.009 ★CR SR CSR RSR

2024 XC 120.5

Heritage Christian (IN) · Grade 11

Date Meet Event Result Place Rating Difficulty PR/SR Flags
2024-11-02 Norris Penrose Event Center 5000m 21:42.5 26th · 5th on team 120.6 +0.067 CSR
2024-10-24 Lyons Middle/High School 5000m 21:30.5 7th · 5th on team 118.6 +0.046 CSR
2024-09-14 Heritage High School 5000m 20:27.9 12th · 5th on team 122.3 -0.001 SR CSR RSR

2023 XC 123.4

Heritage Christian (IN) · Grade 10

Date Meet Event Result Place Rating Difficulty PR/SR Flags
2023-10-28 Norris Penrose Event Center 5000m 21:12.7 23rd · 5th on team 123.0 +0.067
2023-10-19 Lyons Middle/High School 5000m 21:42.5 7th · 5th on team 118.7 +0.046 CSR
2023-09-09 Heritage High School 5000m 19:48.2 12th · 2nd on team 126.9 -0.001 ★PR ★CR SR CSR RSR
2023-09-03 Little America Golf Course 5000m 21:18.4 38th · 1st on team 123.8 +0.065 ★CR CSR
2023-08-25 Norris Penrose Event Center 5000m 20:47.8 5th · 1st on team 125.7 +0.067 ★CR SR CSR RSR
2023-08-19 Spring Canyon Park 5000m 21:17 14th · 1st on team 122.5 +0.037 ★CR SR CSR RSR

2022 XC 121.6

Heritage Christian (IN) · Grade 9

Date Meet Event Result Place Rating Difficulty PR/SR Flags
2022-10-29 Norris Penrose Event Center 5000m 21:20.9 20th · 3rd on team 124.0 +0.067 CR CSR
2022-10-21 Lyons Middle/High School 5000m 22:13.3 4th · 4th on team 116.6 +0.046
2022-10-11 Jason Sams Memorial Park 5000m 20:36.1 3rd · 3rd on team 127.1 +0.046 ★CR R CSR RSR
2022-09-30 North Lake Park 5000m 20:57 18th · 3rd on team 123.7 +0.041 ★CR CSR
2022-09-17 Lyons Middle/High School 5000m 21:01.4 11th · 1st on team 124.3 +0.046 ★CR CSR
2022-09-10 Heritage High School 5000m 20:15 9th · 2nd on team 119.8 -0.001 PR CR SR CSR
2022-09-02 Norris Penrose Event Center 5000m 23:40.5 14th · 2nd on team 112.6 +0.067 CR CSR
2022-08-27 Fort Collins High School 5000m 20:35 15th · 2nd on team 124.6 +0.023 PR ★CR R SR CSR RSR

Track & Field

TF speed rating

2026 TF 125.2

Heritage Christian (IN) · Grade 12

Date Meet Event Result Place Rating Difficulty PR/SR Flags
2026-05-16 CHSAA State Championship 1600m 5:29.63 10th · 1st on team 126.6 -0.011
2026-05-09 Teddy's Last Chance 800m 2:30.98 35th · 1st on team 123.6 -0.014
2026-05-08 Hoka St. Vrain Invitational 1600m 5:20.24 57th · 1st on team 129.8 -0.015 ★PR ★R SR RSR
2026-05-02 Three League Meet 400m 1:05.53 3rd · 1st on team -0.013 ★PR SR
2026-05-02 Three League Meet 1600m 5:34.53 2nd · 2nd on team 124.5 -0.013
2026-04-28 Highland Twilight Invitational hj DNS -0.003
2026-04-24 Longmont Invitational 1600m 5:31.94 4th · 1st on team 125.2 -0.015 PR SR RSR
2026-04-18 Randall Hess Roughrider Invitational 400m 1:06.32 35th · 1st on team -0.014 PR SR
2026-04-08 Randy Yaussi PSD Meet 1600m 5:36.82 7th · 2nd on team 123.8 -0.012
2026-04-04 Altitude Running Invitational 800m 2:30.92 21st · 1st on team 124.0 -0.012 SR
2026-03-28 University Bulldog Invitational 1600m 5:35.74 3rd · 1st on team 124.2 -0.012 SR RSR

2025 TF 118.8

Heritage Christian (IN) · Grade 11

Date Meet Event Result Place Rating Difficulty PR/SR Flags
2025-05-15 CHSAA State Track & Field Championships 800m 2:38.16 17th · 3rd on team 119.1 -0.011
2025-05-10 Teddy's Last Chance Qualifier 800m 2:32.36 52nd · 2nd on team 122.7 -0.014 SR RSR
2025-05-02 Three League Meet: Granite Peaks, Foothills, Mile High hj 4-02.00 -0.013
2025-05-02 Three League Meet: Granite Peaks, Foothills, Mile High 1600m 5:58.76 6th · 3rd on team 115.9 -0.013
2025-05-02 Three League Meet: Granite Peaks, Foothills, Mile High 800m 2:36.48 3rd · 2nd on team 119.5 -0.013
2025-04-29 Highland Twilight Invitational 800m 2:38.38 1st · 1st on team 119.7 -0.003
2025-04-23 NOCO MVHS - TVHS Qualifier 800m 2:35.31 9th · 1st on team 121.0 -0.007 SR RSR
2025-03-29 University Bulldog Invitational 800m 2:42.65 8th · 2nd on team 115.6 -0.012 SR RSR
2025-03-29 University Bulldog Invitational 1600m 5:57.03 8th · 3rd on team 117.1 -0.012 SR RSR

2024 TF 122.4

Heritage Christian (IN) · Grade 10

Date Meet Event Result Place Rating Difficulty PR/SR Flags
2024-05-18 COLORADO STATE CHAMPIONSHIPS 800m 2:31.78 16th · 5th on team 124.1 -0.011
2024-05-11 Teddy's Last Chance Qualifier 800m 2:30.27 25th · 2nd on team 124.2 -0.014 ★PR SR RSR
2024-05-10 HOKA St. Vrain Invitational 800m 2:33.59 68th · 2nd on team 121.4 -0.015 PR SR RSR
2024-04-19 Centaurus Twilight 800m 2:37.67 26th · 1st on team 119.8 -0.012 SR RSR

2023 TF 121.6

Heritage Christian (IN) · Grade 9

Date Meet Event Result Place Rating Difficulty PR/SR Flags
2023-05-20 Colorado 2A State Championships 3200m 12:13.6 6th · 2nd on team 122.3 -0.011 ★PR SR RSR
2023-05-20 Colorado 2A State Championships 1600m 5:34.31 7th · 1st on team 124.8 -0.011 PR SR RSR
2023-05-05 Longs Peak/NCAC/Mile High League Meets 1600m 5:46.15 3rd · 2nd on team 120.3 -0.015 PR SR
2023-05-05 Longs Peak/NCAC/Mile High League Meets 400m 1:07.11 4th · 3rd on team -0.015 PR SR
2023-04-15 The Pomona Invitational 800m 2:36.42 36th · 1st on team 120.7 -0.011
2023-04-08 Fightin' Red Invitational 800m 2:34.23 5th · 2nd on team 122.1 -0.008 PR SR RSR
2023-03-31 Jack Christensen Invitational 3200m 12:42.14 2nd · 2nd on team 119.4 -0.013 PR SR RSR
2023-03-24 Runners Roost of Fort Collins Invitational 400m 1:10.76 32nd · 2nd on team -0.011 PR SR